sensor_id;sensor_type;location;lat;lon;timestamp;temperature;humidity
38500;DHT22;24269;51.894;4.622;2023-01-29T00:01:13;4.40;99.90
38500;DHT22;24269;51.894;4.622;2023-01-29T00:03:39;4.40;99.90
38500;DHT22;24269;51.894;4.622;2023-01-29T00:06:06;4.50;99.90
38500;DHT22;24269;51.894;4.622;2023-01-29T00:08:36;4.50;99.90
38500;DHT22;24269;51.894;4.622;2023-01-29T00:11:04;4.50;99.90
38500;DHT22;24269;51.894;4.622;2023-01-29T00:13:30;4.50;99.90
38500;DHT22;24269;51.894;4.622;2023-01-29T00:15:57;4.50;99.90
38500;DHT22;24269;51.894;4.622;2023-01-29T00:18:24;4.50;99.90
38500;DHT22;24269;51.894;4.622;2023-01-29T00:20:49;4.50;99.90
38500;DHT22;24269;51.894;4.622;2023-01-29T00:23:15;4.50;99.90
38500;DHT22;24269;51.894;4.622;2023-01-29T00:25:41;4.50;99.90
38500;DHT22;24269;51.894;4.622;2023-01-29T00:28:07;4.50;99.90
38500;DHT22;24269;51.894;4.622;2023-01-29T00:30:34;4.50;99.90
38500;DHT22;24269;51.894;4.622;2023-01-29T00:32:59;4.50;99.90
38500;DHT22;24269;51.894;4.622;2023-01-29T00:35:25;4.50;99.90
38500;DHT22;24269;51.894;4.622;2023-01-29T00:37:51;4.50;99.90
38500;DHT22;24269;51.894;4.622;2023-01-29T00:40:16;4.50;99.90
38500;DHT22;24269;51.894;4.622;2023-01-29T00:42:45;4.50;99.90
38500;DHT22;24269;51.894;4.622;2023-01-29T00:45:29;4.50;99.90
38500;DHT22;24269;51.894;4.622;2023-01-29T00:47:55;4.50;99.90
38500;DHT22;24269;51.894;4.622;2023-01-29T00:50:21;4.50;99.90
38500;DHT22;24269;51.894;4.622;2023-01-29T00:52:46;4.50;99.90
38500;DHT22;24269;51.894;4.622;2023-01-29T00:55:14;4.50;99.90
38500;DHT22;24269;51.894;4.622;2023-01-29T00:57:39;4.50;99.90
38500;DHT22;24269;51.894;4.622;2023-01-29T01:00:10;4.60;99.90
38500;DHT22;24269;51.894;4.622;2023-01-29T01:02:36;4.60;99.90
38500;DHT22;24269;51.894;4.622;2023-01-29T01:05:21;4.60;99.90
38500;DHT22;24269;51.894;4.622;2023-01-29T01:07:52;4.70;99.90
38500;DHT22;24269;51.894;4.622;2023-01-29T01:10:20;4.70;99.90
38500;DHT22;24269;51.894;4.622;2023-01-29T01:12:52;4.60;99.90
38500;DHT22;24269;51.894;4.622;2023-01-29T01:15:18;4.70;99.90
38500;DHT22;24269;51.894;4.622;2023-01-29T01:17:44;4.70;99.90
38500;DHT22;24269;51.894;4.622;2023-01-29T01:20:11;4.70;99.90
38500;DHT22;24269;51.894;4.622;2023-01-29T01:22:37;4.70;99.90
38500;DHT22;24269;51.894;4.622;2023-01-29T01:25:02;4.60;99.90
38500;DHT22;24269;51.894;4.622;2023-01-29T01:27:28;4.60;99.90
38500;DHT22;24269;51.894;4.622;2023-01-29T01:29:54;4.50;99.90
38500;DHT22;24269;51.894;4.622;2023-01-29T01:32:19;4.50;99.90
38500;DHT22;24269;51.894;4.622;2023-01-29T01:34:45;4.50;99.90
38500;DHT22;24269;51.894;4.622;2023-01-29T01:37:11;4.50;99.90
38500;DHT22;24269;51.894;4.622;2023-01-29T01:39:36;4.50;99.90
38500;DHT22;24269;51.894;4.622;2023-01-29T01:42:02;4.40;99.90
38500;DHT22;24269;51.894;4.622;2023-01-29T01:47:16;4.40;99.90
38500;DHT22;24269;51.894;4.622;2023-01-29T01:49:44;4.40;99.90
38500;DHT22;24269;51.894;4.622;2023-01-29T01:52:10;4.50;99.90
38500;DHT22;24269;51.894;4.622;2023-01-29T01:54:37;4.40;99.90
38500;DHT22;24269;51.894;4.622;2023-01-29T01:57:06;4.50;99.90
38500;DHT22;24269;51.894;4.622;2023-01-29T01:59:42;4.50;99.90
38500;DHT22;24269;51.894;4.622;2023-01-29T02:02:10;4.50;99.90
38500;DHT22;24269;51.894;4.622;2023-01-29T02:04:55;4.50;99.90
38500;DHT22;24269;51.894;4.622;2023-01-29T02:07:45;4.50;99.90
38500;DHT22;24269;51.894;4.622;2023-01-29T02:10:56;4.50;99.90
38500;DHT22;24269;51.894;4.622;2023-01-29T02:13:22;4.50;99.90
38500;DHT22;24269;51.894;4.622;2023-01-29T02:15:48;4.50;99.90
38500;DHT22;24269;51.894;4.622;2023-01-29T02:18:17;4.50;99.90
38500;DHT22;24269;51.894;4.622;2023-01-29T02:21:03;4.60;99.90
38500;DHT22;24269;51.894;4.622;2023-01-29T02:23:42;4.60;99.90
38500;DHT22;24269;51.894;4.622;2023-01-29T02:26:23;4.70;99.90
38500;DHT22;24269;51.894;4.622;2023-01-29T02:29:05;4.70;99.90
38500;DHT22;24269;51.894;4.622;2023-01-29T02:37:15;4.60;99.90
38500;DHT22;24269;51.894;4.622;2023-01-29T02:39:52;4.60;99.90
38500;DHT22;24269;51.894;4.622;2023-01-29T02:42:30;4.50;99.90
38500;DHT22;24269;51.894;4.622;2023-01-29T02:45:09;4.50;99.90
38500;DHT22;24269;51.894;4.622;2023-01-29T02:47:51;4.40;99.90
38500;DHT22;24269;51.894;4.622;2023-01-29T02:50:30;4.40;99.90
38500;DHT22;24269;51.894;4.622;2023-01-29T02:53:03;4.50;99.90
38500;DHT22;24269;51.894;4.622;2023-01-29T02:56:02;4.50;99.90
38500;DHT22;24269;51.894;4.622;2023-01-29T02:58:38;4.50;99.90
38500;DHT22;24269;51.894;4.622;2023-01-29T03:01:10;4.50;99.90
38500;DHT22;24269;51.894;4.622;2023-01-29T03:03:41;4.60;99.90
38500;DHT22;24269;51.894;4.622;2023-01-29T03:08:59;4.50;99.90
38500;DHT22;24269;51.894;4.622;2023-01-29T03:11:29;4.40;99.90
38500;DHT22;24269;51.894;4.622;2023-01-29T03:14:03;4.40;99.90
38500;DHT22;24269;51.894;4.622;2023-01-29T03:19:15;4.40;99.90
38500;DHT22;24269;51.894;4.622;2023-01-29T03:21:47;4.40;99.90
38500;DHT22;24269;51.894;4.622;2023-01-29T03:27:28;4.40;99.90
38500;DHT22;24269;51.894;4.622;2023-01-29T03:30:16;4.40;99.90
38500;DHT22;24269;51.894;4.622;2023-01-29T03:33:04;4.50;99.90
38500;DHT22;24269;51.894;4.622;2023-01-29T03:35:36;4.40;99.90
38500;DHT22;24269;51.894;4.622;2023-01-29T03:38:06;4.40;99.90
38500;DHT22;24269;51.894;4.622;2023-01-29T03:40:49;4.40;99.90
38500;DHT22;24269;51.894;4.622;2023-01-29T03:51:29;4.40;99.90
38500;DHT22;24269;51.894;4.622;2023-01-29T03:54:17;4.30;99.90
38500;DHT22;24269;51.894;4.622;2023-01-29T03:57:12;4.30;99.90
38500;DHT22;24269;51.894;4.622;2023-01-29T04:02:12;4.30;99.90
38500;DHT22;24269;51.894;4.622;2023-01-29T04:04:42;4.30;99.90
38500;DHT22;24269;51.894;4.622;2023-01-29T04:07:16;4.30;99.90
38500;DHT22;24269;51.894;4.622;2023-01-29T04:09:50;4.30;99.90
38500;DHT22;24269;51.894;4.622;2023-01-29T04:12:27;4.30;99.90
38500;DHT22;24269;51.894;4.622;2023-01-29T04:14:55;4.30;99.90
38500;DHT22;24269;51.894;4.622;2023-01-29T04:17:26;4.40;99.90
38500;DHT22;24269;51.894;4.622;2023-01-29T04:19:54;4.30;99.90
38500;DHT22;24269;51.894;4.622;2023-01-29T04:22:25;4.30;99.90
38500;DHT22;24269;51.894;4.622;2023-01-29T04:24:52;4.30;99.90
38500;DHT22;24269;51.894;4.622;2023-01-29T04:35:17;4.30;99.90
38500;DHT22;24269;51.894;4.622;2023-01-29T04:37:55;4.30;99.90
38500;DHT22;24269;51.894;4.622;2023-01-29T04:40:39;4.30;99.90
38500;DHT22;24269;51.894;4.622;2023-01-29T04:43:25;4.20;99.90
38500;DHT22;24269;51.894;4.622;2023-01-29T04:46:02;4.20;99.90
38500;DHT22;24269;51.894;4.622;2023-01-29T04:49:34;4.20;99.90
38500;DHT22;24269;51.894;4.622;2023-01-29T04:51:31;4.20;99.90
38500;DHT22;24269;51.894;4.622;2023-01-29T04:57:04;4.20;99.90
38500;DHT22;24269;51.894;4.622;2023-01-29T04:59:39;4.30;99.90
38500;DHT22;24269;51.894;4.622;2023-01-29T05:02:08;4.30;99.90
38500;DHT22;24269;51.894;4.622;2023-01-29T05:04:36;4.20;99.90
38500;DHT22;24269;51.894;4.622;2023-01-29T05:07:06;4.30;99.90
38500;DHT22;24269;51.894;4.622;2023-01-29T05:09:33;4.30;99.90
38500;DHT22;24269;51.894;4.622;2023-01-29T05:12:00;4.30;99.90
38500;DHT22;24269;51.894;4.622;2023-01-29T05:14:27;4.40;99.90
38500;DHT22;24269;51.894;4.622;2023-01-29T05:16:56;4.30;99.90
38500;DHT22;24269;51.894;4.622;2023-01-29T05:19:24;4.30;99.90
38500;DHT22;24269;51.894;4.622;2023-01-29T05:21:51;4.30;99.90
38500;DHT22;24269;51.894;4.622;2023-01-29T05:24:19;4.40;99.90
38500;DHT22;24269;51.894;4.622;2023-01-29T05:26:46;4.30;99.90
38500;DHT22;24269;51.894;4.622;2023-01-29T05:29:31;4.30;99.90
38500;DHT22;24269;51.894;4.622;2023-01-29T05:31:57;4.30;99.90
38500;DHT22;24269;51.894;4.622;2023-01-29T05:34:26;4.30;99.90
38500;DHT22;24269;51.894;4.622;2023-01-29T05:36:52;4.30;99.90
38500;DHT22;24269;51.894;4.622;2023-01-29T05:39:17;4.30;99.90
38500;DHT22;24269;51.894;4.622;2023-01-29T05:41:43;4.30;99.90
38500;DHT22;24269;51.894;4.622;2023-01-29T05:44:09;4.30;99.90
38500;DHT22;24269;51.894;4.622;2023-01-29T05:46:35;4.30;99.90
38500;DHT22;24269;51.894;4.622;2023-01-29T05:49:01;4.30;99.90
38500;DHT22;24269;51.894;4.622;2023-01-29T05:51:27;4.40;99.90
38500;DHT22;24269;51.894;4.622;2023-01-29T05:53:52;4.40;99.90
38500;DHT22;24269;51.894;4.622;2023-01-29T05:56:18;4.40;99.90
38500;DHT22;24269;51.894;4.622;2023-01-29T05:58:44;4.40;99.90
38500;DHT22;24269;51.894;4.622;2023-01-29T06:01:15;4.40;99.90
38500;DHT22;24269;51.894;4.622;2023-01-29T06:03:41;4.40;99.90
38500;DHT22;24269;51.894;4.622;2023-01-29T06:06:07;4.50;99.90
38500;DHT22;24269;51.894;4.622;2023-01-29T06:08:33;4.50;99.90
38500;DHT22;24269;51.894;4.622;2023-01-29T06:10:58;4.50;99.90
38500;DHT22;24269;51.894;4.622;2023-01-29T06:13:24;4.50;99.90
38500;DHT22;24269;51.894;4.622;2023-01-29T06:15:50;4.50;99.90
38500;DHT22;24269;51.894;4.622;2023-01-29T06:18:15;4.50;99.90
38500;DHT22;24269;51.894;4.622;2023-01-29T06:20:41;4.50;99.90
38500;DHT22;24269;51.894;4.622;2023-01-29T06:23:06;4.50;99.90
38500;DHT22;24269;51.894;4.622;2023-01-29T06:25:32;4.40;99.90
38500;DHT22;24269;51.894;4.622;2023-01-29T06:27:58;4.40;99.90
38500;DHT22;24269;51.894;4.622;2023-01-29T06:30:23;4.40;99.90
38500;DHT22;24269;51.894;4.622;2023-01-29T06:32:49;4.40;99.90
38500;DHT22;24269;51.894;4.622;2023-01-29T06:35:14;4.40;99.90
38500;DHT22;24269;51.894;4.622;2023-01-29T06:37:40;4.40;99.90
38500;DHT22;24269;51.894;4.622;2023-01-29T06:40:06;4.40;99.90
38500;DHT22;24269;51.894;4.622;2023-01-29T06:42:34;4.40;99.90
38500;DHT22;24269;51.894;4.622;2023-01-29T06:45:00;4.40;99.90
38500;DHT22;24269;51.894;4.622;2023-01-29T06:47:26;4.40;99.90
38500;DHT22;24269;51.894;4.622;2023-01-29T06:49:52;4.40;99.90
38500;DHT22;24269;51.894;4.622;2023-01-29T06:52:17;4.40;99.90
38500;DHT22;24269;51.894;4.622;2023-01-29T06:54:43;4.50;99.90
38500;DHT22;24269;51.894;4.622;2023-01-29T06:57:09;4.50;99.90
38500;DHT22;24269;51.894;4.622;2023-01-29T06:59:34;4.40;99.90
38500;DHT22;24269;51.894;4.622;2023-01-29T07:02:00;4.40;99.90
38500;DHT22;24269;51.894;4.622;2023-01-29T07:04:27;4.40;99.90
38500;DHT22;24269;51.894;4.622;2023-01-29T07:06:52;4.40;99.90
38500;DHT22;24269;51.894;4.622;2023-01-29T07:09:18;4.50;99.90
38500;DHT22;24269;51.894;4.622;2023-01-29T07:11:44;4.50;99.90
38500;DHT22;24269;51.894;4.622;2023-01-29T07:14:09;4.50;99.90
38500;DHT22;24269;51.894;4.622;2023-01-29T07:16:35;4.40;99.90
38500;DHT22;24269;51.894;4.622;2023-01-29T07:19:00;4.40;99.90
38500;DHT22;24269;51.894;4.622;2023-01-29T07:21:26;4.40;99.90
38500;DHT22;24269;51.894;4.622;2023-01-29T07:23:52;4.40;99.90
38500;DHT22;24269;51.894;4.622;2023-01-29T07:26:18;4.40;99.90
38500;DHT22;24269;51.894;4.622;2023-01-29T07:28:43;4.40;99.90
38500;DHT22;24269;51.894;4.622;2023-01-29T07:31:12;4.50;99.90
38500;DHT22;24269;51.894;4.622;2023-01-29T07:33:38;4.40;99.90
38500;DHT22;24269;51.894;4.622;2023-01-29T07:36:07;4.40;99.90
38500;DHT22;24269;51.894;4.622;2023-01-29T07:38:33;4.50;99.90
38500;DHT22;24269;51.894;4.622;2023-01-29T07:40:59;4.40;99.90
38500;DHT22;24269;51.894;4.622;2023-01-29T07:43:24;4.40;99.90
38500;DHT22;24269;51.894;4.622;2023-01-29T07:45:50;4.40;99.90
38500;DHT22;24269;51.894;4.622;2023-01-29T07:48:16;4.50;99.90
38500;DHT22;24269;51.894;4.622;2023-01-29T07:50:42;4.50;99.90
38500;DHT22;24269;51.894;4.622;2023-01-29T07:53:14;4.50;99.90
38500;DHT22;24269;51.894;4.622;2023-01-29T07:55:43;4.50;99.90
38500;DHT22;24269;51.894;4.622;2023-01-29T07:58:09;4.50;99.90
38500;DHT22;24269;51.894;4.622;2023-01-29T08:00:35;4.50;99.90
38500;DHT22;24269;51.894;4.622;2023-01-29T08:03:12;4.50;99.90
38500;DHT22;24269;51.894;4.622;2023-01-29T08:05:38;4.50;99.90
38500;DHT22;24269;51.894;4.622;2023-01-29T08:08:04;4.40;99.90
38500;DHT22;24269;51.894;4.622;2023-01-29T08:10:30;4.50;99.90
38500;DHT22;24269;51.894;4.622;2023-01-29T08:12:57;4.50;99.90
38500;DHT22;24269;51.894;4.622;2023-01-29T08:15:23;4.50;99.90
38500;DHT22;24269;51.894;4.622;2023-01-29T08:17:49;4.40;99.90
38500;DHT22;24269;51.894;4.622;2023-01-29T08:20:15;4.50;99.90
38500;DHT22;24269;51.894;4.622;2023-01-29T08:22:41;4.50;99.90
38500;DHT22;24269;51.894;4.622;2023-01-29T08:25:07;4.50;99.90
38500;DHT22;24269;51.894;4.622;2023-01-29T08:27:33;4.50;99.90
38500;DHT22;24269;51.894;4.622;2023-01-29T08:29:59;4.50;99.90
38500;DHT22;24269;51.894;4.622;2023-01-29T08:32:24;4.60;99.90
38500;DHT22;24269;51.894;4.622;2023-01-29T08:34:50;4.60;99.90
38500;DHT22;24269;51.894;4.622;2023-01-29T08:37:15;4.50;99.90
38500;DHT22;24269;51.894;4.622;2023-01-29T08:39:41;4.60;99.90
38500;DHT22;24269;51.894;4.622;2023-01-29T08:42:06;4.60;99.90
38500;DHT22;24269;51.894;4.622;2023-01-29T08:44:32;4.60;99.90
38500;DHT22;24269;51.894;4.622;2023-01-29T08:46:57;4.60;99.90
38500;DHT22;24269;51.894;4.622;2023-01-29T08:49:23;4.70;99.90
38500;DHT22;24269;51.894;4.622;2023-01-29T08:51:49;4.60;99.90
38500;DHT22;24269;51.894;4.622;2023-01-29T08:54:16;4.70;99.90
38500;DHT22;24269;51.894;4.622;2023-01-29T08:56:41;4.60;99.90
38500;DHT22;24269;51.894;4.622;2023-01-29T08:59:09;4.60;99.90
38500;DHT22;24269;51.894;4.622;2023-01-29T09:01:34;4.60;99.90
38500;DHT22;24269;51.894;4.622;2023-01-29T09:04:00;4.70;99.90
38500;DHT22;24269;51.894;4.622;2023-01-29T09:06:26;4.70;99.90
38500;DHT22;24269;51.894;4.622;2023-01-29T09:08:51;4.70;99.90
38500;DHT22;24269;51.894;4.622;2023-01-29T09:11:17;4.70;99.90
38500;DHT22;24269;51.894;4.622;2023-01-29T09:13:42;4.80;99.90
38500;DHT22;24269;51.894;4.622;2023-01-29T09:16:09;4.80;99.90
38500;DHT22;24269;51.894;4.622;2023-01-29T09:18:34;4.80;99.90
38500;DHT22;24269;51.894;4.622;2023-01-29T09:21:00;4.90;99.90
38500;DHT22;24269;51.894;4.622;2023-01-29T09:23:28;4.90;99.90
38500;DHT22;24269;51.894;4.622;2023-01-29T09:25:54;5.00;99.90
38500;DHT22;24269;51.894;4.622;2023-01-29T09:28:20;5.00;99.90
38500;DHT22;24269;51.894;4.622;2023-01-29T09:30:46;5.00;99.90
38500;DHT22;24269;51.894;4.622;2023-01-29T09:33:11;5.00;99.90
38500;DHT22;24269;51.894;4.622;2023-01-29T09:35:40;5.00;99.90
38500;DHT22;24269;51.894;4.622;2023-01-29T09:38:06;5.00;99.90
38500;DHT22;24269;51.894;4.622;2023-01-29T09:45:29;5.10;99.90
38500;DHT22;24269;51.894;4.622;2023-01-29T09:47:59;5.10;99.90
38500;DHT22;24269;51.894;4.622;2023-01-29T09:50:35;5.20;99.90
38500;DHT22;24269;51.894;4.622;2023-01-29T09:53:29;5.20;99.90
38500;DHT22;24269;51.894;4.622;2023-01-29T09:56:01;5.20;99.90
38500;DHT22;24269;51.894;4.622;2023-01-29T10:23:29;5.30;99.90
38500;DHT22;24269;51.894;4.622;2023-01-29T10:25:57;5.30;99.90
38500;DHT22;24269;51.894;4.622;2023-01-29T10:28:42;5.40;99.90
38500;DHT22;24269;51.894;4.622;2023-01-29T10:31:14;5.40;99.90
38500;DHT22;24269;51.894;4.622;2023-01-29T10:33:46;5.40;99.90
38500;DHT22;24269;51.894;4.622;2023-01-29T10:36:20;5.40;99.90
38500;DHT22;24269;51.894;4.622;2023-01-29T10:38:49;5.30;99.90
38500;DHT22;24269;51.894;4.622;2023-01-29T10:41:18;5.40;99.90
38500;DHT22;24269;51.894;4.622;2023-01-29T10:51:44;5.50;99.90
38500;DHT22;24269;51.894;4.622;2023-01-29T10:57:51;5.60;99.90
38500;DHT22;24269;51.894;4.622;2023-01-29T11:00:25;5.60;99.90
38500;DHT22;24269;51.894;4.622;2023-01-29T11:02:51;5.60;99.90
38500;DHT22;24269;51.894;4.622;2023-01-29T11:05:28;5.60;99.90
38500;DHT22;24269;51.894;4.622;2023-01-29T11:08:04;5.60;99.90
38500;DHT22;24269;51.894;4.622;2023-01-29T11:10:37;5.60;99.90
38500;DHT22;24269;51.894;4.622;2023-01-29T11:13:07;5.60;99.90
38500;DHT22;24269;51.894;4.622;2023-01-29T11:15:36;5.50;99.90
38500;DHT22;24269;51.894;4.622;2023-01-29T11:18:04;5.50;99.90
38500;DHT22;24269;51.894;4.622;2023-01-29T11:20:32;5.50;99.90
38500;DHT22;24269;51.894;4.622;2023-01-29T11:22:58;5.50;99.90
38500;DHT22;24269;51.894;4.622;2023-01-29T11:25:25;5.60;99.90
38500;DHT22;24269;51.894;4.622;2023-01-29T11:28:02;5.60;99.90
38500;DHT22;24269;51.894;4.622;2023-01-29T11:30:32;5.60;99.90
38500;DHT22;24269;51.894;4.622;2023-01-29T11:33:05;5.60;99.90
38500;DHT22;24269;51.894;4.622;2023-01-29T11:35:33;5.60;99.90
38500;DHT22;24269;51.894;4.622;2023-01-29T11:40:43;5.60;99.90
38500;DHT22;24269;51.894;4.622;2023-01-29T11:43:21;5.60;99.90
38500;DHT22;24269;51.894;4.622;2023-01-29T11:45:49;5.60;99.90
38500;DHT22;24269;51.894;4.622;2023-01-29T11:48:17;5.60;99.90
38500;DHT22;24269;51.894;4.622;2023-01-29T11:50:50;5.70;99.90
38500;DHT22;24269;51.894;4.622;2023-01-29T11:53:41;5.70;99.90
38500;DHT22;24269;51.894;4.622;2023-01-29T11:56:25;5.70;99.90
38500;DHT22;24269;51.894;4.622;2023-01-29T11:58:53;5.70;99.90
38500;DHT22;24269;51.894;4.622;2023-01-29T12:01:36;5.70;99.90
38500;DHT22;24269;51.894;4.622;2023-01-29T12:04:18;5.70;99.90
38500;DHT22;24269;51.894;4.622;2023-01-29T12:06:46;5.70;99.90
38500;DHT22;24269;51.894;4.622;2023-01-29T12:09:17;5.70;99.90
38500;DHT22;24269;51.894;4.622;2023-01-29T12:11:44;5.70;99.90
38500;DHT22;24269;51.894;4.622;2023-01-29T12:17:04;5.70;99.90
38500;DHT22;24269;51.894;4.622;2023-01-29T12:19:45;5.80;99.90
38500;DHT22;24269;51.894;4.622;2023-01-29T12:22:41;5.80;99.90
38500;DHT22;24269;51.894;4.622;2023-01-29T12:28:12;5.90;99.90
38500;DHT22;24269;51.894;4.622;2023-01-29T12:30:50;5.80;99.90
38500;DHT22;24269;51.894;4.622;2023-01-29T12:36:25;5.80;99.90
38500;DHT22;24269;51.894;4.622;2023-01-29T12:38:52;5.90;99.90
38500;DHT22;24269;51.894;4.622;2023-01-29T12:44:55;5.90;99.90
38500;DHT22;24269;51.894;4.622;2023-01-29T12:47:30;6.00;99.90
38500;DHT22;24269;51.894;4.622;2023-01-29T12:50:02;6.00;99.90
38500;DHT22;24269;51.894;4.622;2023-01-29T12:52:39;6.10;99.90
38500;DHT22;24269;51.894;4.622;2023-01-29T12:55:16;6.20;99.90
38500;DHT22;24269;51.894;4.622;2023-01-29T12:58:00;6.20;99.90
38500;DHT22;24269;51.894;4.622;2023-01-29T13:00:38;6.30;99.90
38500;DHT22;24269;51.894;4.622;2023-01-29T13:03:20;6.30;99.90
38500;DHT22;24269;51.894;4.622;2023-01-29T13:05:49;6.30;99.90
38500;DHT22;24269;51.894;4.622;2023-01-29T13:10:48;6.30;99.90
38500;DHT22;24269;51.894;4.622;2023-01-29T13:13:25;6.30;99.90
38500;DHT22;24269;51.894;4.622;2023-01-29T13:15:52;6.30;99.90
38500;DHT22;24269;51.894;4.622;2023-01-29T13:18:25;6.30;99.90
38500;DHT22;24269;51.894;4.622;2023-01-29T13:20:55;6.30;99.90
38500;DHT22;24269;51.894;4.622;2023-01-29T13:23:27;6.30;99.90
38500;DHT22;24269;51.894;4.622;2023-01-29T13:25:56;6.30;99.90
38500;DHT22;24269;51.894;4.622;2023-01-29T13:28:24;6.30;99.90
38500;DHT22;24269;51.894;4.622;2023-01-29T13:31:16;6.40;99.90
38500;DHT22;24269;51.894;4.622;2023-01-29T13:33:43;6.30;99.90
38500;DHT22;24269;51.894;4.622;2023-01-29T13:36:19;6.40;99.90
38500;DHT22;24269;51.894;4.622;2023-01-29T13:38:47;6.40;99.90
38500;DHT22;24269;51.894;4.622;2023-01-29T13:41:17;6.40;99.90
38500;DHT22;24269;51.894;4.622;2023-01-29T13:43:43;6.40;99.90
38500;DHT22;24269;51.894;4.622;2023-01-29T13:46:13;6.50;99.90
38500;DHT22;24269;51.894;4.622;2023-01-29T13:48:44;6.50;99.90
38500;DHT22;24269;51.894;4.622;2023-01-29T13:51:14;6.50;99.90
38500;DHT22;24269;51.894;4.622;2023-01-29T13:53:50;6.40;99.90
38500;DHT22;24269;51.894;4.622;2023-01-29T13:56:27;6.50;99.90
38500;DHT22;24269;51.894;4.622;2023-01-29T13:58:53;6.50;99.90
38500;DHT22;24269;51.894;4.622;2023-01-29T14:01:56;6.50;99.90
38500;DHT22;24269;51.894;4.622;2023-01-29T14:04:14;6.60;99.90
38500;DHT22;24269;51.894;4.622;2023-01-29T14:06:50;6.60;99.90
38500;DHT22;24269;51.894;4.622;2023-01-29T14:10:08;6.70;99.90
38500;DHT22;24269;51.894;4.622;2023-01-29T14:12:02;6.70;99.90
38500;DHT22;24269;51.894;4.622;2023-01-29T14:17:13;6.60;99.90
38500;DHT22;24269;51.894;4.622;2023-01-29T14:19:45;6.50;99.90
38500;DHT22;24269;51.894;4.622;2023-01-29T14:22:17;6.60;99.90
38500;DHT22;24269;51.894;4.622;2023-01-29T14:24:43;6.50;99.90
38500;DHT22;24269;51.894;4.622;2023-01-29T14:27:13;6.50;99.90
38500;DHT22;24269;51.894;4.622;2023-01-29T14:29:43;6.60;99.90
38500;DHT22;24269;51.894;4.622;2023-01-29T14:34:43;6.50;99.90
38500;DHT22;24269;51.894;4.622;2023-01-29T14:39:50;6.50;99.90
38500;DHT22;24269;51.894;4.622;2023-01-29T14:42:21;6.50;99.90
38500;DHT22;24269;51.894;4.622;2023-01-29T14:44:55;6.40;99.90
38500;DHT22;24269;51.894;4.622;2023-01-29T14:50:00;6.40;99.90
38500;DHT22;24269;51.894;4.622;2023-01-29T14:52:34;6.40;99.90
38500;DHT22;24269;51.894;4.622;2023-01-29T14:55:02;6.30;99.90
38500;DHT22;24269;51.894;4.622;2023-01-29T14:57:29;6.30;99.90
38500;DHT22;24269;51.894;4.622;2023-01-29T14:59:56;6.30;99.90
38500;DHT22;24269;51.894;4.622;2023-01-29T15:02:44;6.20;99.90
38500;DHT22;24269;51.894;4.622;2023-01-29T15:05:19;6.10;99.90
38500;DHT22;24269;51.894;4.622;2023-01-29T15:07:55;6.10;99.90
38500;DHT22;24269;51.894;4.622;2023-01-29T15:10:33;6.10;99.90
38500;DHT22;24269;51.894;4.622;2023-01-29T15:13:07;6.00;99.90
38500;DHT22;24269;51.894;4.622;2023-01-29T15:15:41;6.00;99.90
38500;DHT22;24269;51.894;4.622;2023-01-29T15:20:48;5.90;99.90
38500;DHT22;24269;51.894;4.622;2023-01-29T15:23:33;5.90;99.90
38500;DHT22;24269;51.894;4.622;2023-01-29T15:25:59;5.90;99.90
38500;DHT22;24269;51.894;4.622;2023-01-29T15:28:28;5.90;99.90
38500;DHT22;24269;51.894;4.622;2023-01-29T15:30:56;5.90;99.90
38500;DHT22;24269;51.894;4.622;2023-01-29T15:33:23;5.80;99.90
38500;DHT22;24269;51.894;4.622;2023-01-29T15:35:49;5.80;99.90
38500;DHT22;24269;51.894;4.622;2023-01-29T15:38:20;5.80;99.90
38500;DHT22;24269;51.894;4.622;2023-01-29T15:45:47;5.70;99.90
38500;DHT22;24269;51.894;4.622;2023-01-29T15:48:13;5.60;99.90
38500;DHT22;24269;51.894;4.622;2023-01-29T15:50:41;5.60;99.90
38500;DHT22;24269;51.894;4.622;2023-01-29T15:53:11;5.60;99.90
38500;DHT22;24269;51.894;4.622;2023-01-29T15:55:37;5.60;99.90
38500;DHT22;24269;51.894;4.622;2023-01-29T15:58:03;5.60;99.90
38500;DHT22;24269;51.894;4.622;2023-01-29T16:00:29;5.60;99.90
38500;DHT22;24269;51.894;4.622;2023-01-29T16:02:55;5.60;99.90
38500;DHT22;24269;51.894;4.622;2023-01-29T16:05:30;5.50;99.90
38500;DHT22;24269;51.894;4.622;2023-01-29T16:07:57;5.50;99.90
38500;DHT22;24269;51.894;4.622;2023-01-29T16:10:28;5.50;99.90
38500;DHT22;24269;51.894;4.622;2023-01-29T16:12:54;5.50;99.90
38500;DHT22;24269;51.894;4.622;2023-01-29T16:15:22;5.50;99.90
38500;DHT22;24269;51.894;4.622;2023-01-29T16:17:51;5.50;99.90
38500;DHT22;24269;51.894;4.622;2023-01-29T16:20:26;5.50;99.90
38500;DHT22;24269;51.894;4.622;2023-01-29T16:22:54;5.50;99.90
38500;DHT22;24269;51.894;4.622;2023-01-29T16:25:19;5.50;99.90
38500;DHT22;24269;51.894;4.622;2023-01-29T16:27:45;5.50;99.90
38500;DHT22;24269;51.894;4.622;2023-01-29T16:30:14;5.60;99.90
38500;DHT22;24269;51.894;4.622;2023-01-29T16:32:40;5.60;99.90
38500;DHT22;24269;51.894;4.622;2023-01-29T16:35:06;5.60;99.90
38500;DHT22;24269;51.894;4.622;2023-01-29T16:37:32;5.50;99.90
38500;DHT22;24269;51.894;4.622;2023-01-29T16:40:09;5.50;99.90
38500;DHT22;24269;51.894;4.622;2023-01-29T16:42:36;5.50;99.90
38500;DHT22;24269;51.894;4.622;2023-01-29T16:45:03;5.50;99.90
38500;DHT22;24269;51.894;4.622;2023-01-29T16:52:31;5.50;99.90
38500;DHT22;24269;51.894;4.622;2023-01-29T16:54:57;5.50;99.90
38500;DHT22;24269;51.894;4.622;2023-01-29T16:57:24;5.50;99.90
38500;DHT22;24269;51.894;4.622;2023-01-29T16:59:54;5.50;99.90
38500;DHT22;24269;51.894;4.622;2023-01-29T17:02:22;5.50;99.90
38500;DHT22;24269;51.894;4.622;2023-01-29T17:04:49;5.50;99.90
38500;DHT22;24269;51.894;4.622;2023-01-29T17:07:15;5.50;99.90
38500;DHT22;24269;51.894;4.622;2023-01-29T17:09:47;5.50;99.90
38500;DHT22;24269;51.894;4.622;2023-01-29T17:12:17;5.40;99.90
38500;DHT22;24269;51.894;4.622;2023-01-29T17:14:58;5.50;99.90
38500;DHT22;24269;51.894;4.622;2023-01-29T17:17:33;5.50;99.90
38500;DHT22;24269;51.894;4.622;2023-01-29T17:20:13;5.50;99.90
38500;DHT22;24269;51.894;4.622;2023-01-29T17:22:39;5.50;99.90
38500;DHT22;24269;51.894;4.622;2023-01-29T17:25:04;5.50;99.90
38500;DHT22;24269;51.894;4.622;2023-01-29T17:27:30;5.50;99.90
38500;DHT22;24269;51.894;4.622;2023-01-29T17:29:55;5.50;99.90
38500;DHT22;24269;51.894;4.622;2023-01-29T17:32:21;5.40;99.90
38500;DHT22;24269;51.894;4.622;2023-01-29T17:34:48;5.40;99.90
38500;DHT22;24269;51.894;4.622;2023-01-29T17:37:13;5.40;99.90
38500;DHT22;24269;51.894;4.622;2023-01-29T17:39:39;5.40;99.90
38500;DHT22;24269;51.894;4.622;2023-01-29T17:42:07;5.40;99.90
38500;DHT22;24269;51.894;4.622;2023-01-29T17:44:34;5.40;99.90
38500;DHT22;24269;51.894;4.622;2023-01-29T17:47:00;5.40;99.90
38500;DHT22;24269;51.894;4.622;2023-01-29T17:49:26;5.40;99.90
38500;DHT22;24269;51.894;4.622;2023-01-29T17:51:52;5.40;99.90
38500;DHT22;24269;51.894;4.622;2023-01-29T17:54:18;5.40;99.90
38500;DHT22;24269;51.894;4.622;2023-01-29T17:56:44;5.40;99.90
38500;DHT22;24269;51.894;4.622;2023-01-29T17:59:17;5.40;99.90
38500;DHT22;24269;51.894;4.622;2023-01-29T18:01:43;5.40;99.90
38500;DHT22;24269;51.894;4.622;2023-01-29T18:04:09;5.40;99.90